Bahia Laura, Argentina
Current Conditions -  °F | °C
As of 9:00 PM on Tuesday 21 Oct 2014 (Local Time) from SAVC Reporting Station
Clear Clear  
Wind Chill: 68°   Ceiling: Unl
Heat Index: 68°   Visibility: 6mi
Dew Point: 34°   Wind: 26mph
Humidity: 28%   Direction: 290°WNW
Pressure: 29.62"   Gusts: 40mph
Location:  48.4°S, 66.48°W
Report Text: SAVC 220000Z 29023G35KT CAVOK 20/01 Q1003
Loading
Personal Weather Stations






























Interactive Weather Map
Tropical Storm Tracking
New forecast layout! Learn more

10-Day Weather Forecast

Advertisements
Track Severe Weather on mobile